sensor_id;sensor_type;location;lat;lon;timestamp;pressure;altitude;pressure_sealevel;temperature;humidity
80321;BME280;69633;47.066;15.450;2023-04-28T00:01:51;97951.31;;;12.65;48.22
80321;BME280;69633;47.066;15.450;2023-04-28T00:04:17;97952.09;;;12.65;47.97
80321;BME280;69633;47.066;15.450;2023-04-28T00:06:42;97954.56;;;12.70;48.13
80321;BME280;69633;47.066;15.450;2023-04-28T00:09:07;97935.34;;;12.65;48.02
80321;BME280;69633;47.066;15.450;2023-04-28T00:11:36;97934.78;;;12.71;48.35
80321;BME280;69633;47.066;15.450;2023-04-28T00:14:03;97926.78;;;12.71;48.74
80321;BME280;69633;47.066;15.450;2023-04-28T00:16:29;97926.81;;;12.59;47.97
80321;BME280;69633;47.066;15.450;2023-04-28T00:18:54;97931.00;;;12.48;48.21
80321;BME280;69633;47.066;15.450;2023-04-28T00:21:20;97936.53;;;12.43;48.47
80321;BME280;69633;47.066;15.450;2023-04-28T00:23:46;97935.31;;;12.40;48.54
80321;BME280;69633;47.066;15.450;2023-04-28T00:26:11;97936.72;;;12.38;48.75
80321;BME280;69633;47.066;15.450;2023-04-28T00:28:37;97930.75;;;12.29;48.45
80321;BME280;69633;47.066;15.450;2023-04-28T00:31:12;97930.38;;;12.18;48.95
80321;BME280;69633;47.066;15.450;2023-04-28T00:33:42;97921.38;;;12.10;49.42
80321;BME280;69633;47.066;15.450;2023-04-28T00:36:08;97922.44;;;11.97;49.47
80321;BME280;69633;47.066;15.450;2023-04-28T00:38:34;97925.44;;;11.96;49.28
80321;BME280;69633;47.066;15.450;2023-04-28T00:41:00;97927.09;;;12.00;49.44
80321;BME280;69633;47.066;15.450;2023-04-28T00:43:25;97917.31;;;11.92;50.11
80321;BME280;69633;47.066;15.450;2023-04-28T00:45:51;97923.28;;;11.89;49.94
80321;BME280;69633;47.066;15.450;2023-04-28T00:48:17;97928.94;;;11.88;50.58
80321;BME280;69633;47.066;15.450;2023-04-28T00:50:44;97932.59;;;11.83;50.46
80321;BME280;69633;47.066;15.450;2023-04-28T00:53:10;97924.69;;;11.75;51.30
80321;BME280;69633;47.066;15.450;2023-04-28T00:55:36;97929.69;;;11.76;50.93
80321;BME280;69633;47.066;15.450;2023-04-28T00:58:02;97924.56;;;11.71;50.72
80321;BME280;69633;47.066;15.450;2023-04-28T01:00:29;97917.63;;;11.70;51.12
80321;BME280;69633;47.066;15.450;2023-04-28T01:02:55;97917.63;;;11.70;51.19
80321;BME280;69633;47.066;15.450;2023-04-28T01:05:23;97914.06;;;11.66;51.16
80321;BME280;69633;47.066;15.450;2023-04-28T01:07:49;97914.59;;;11.59;51.56
80321;BME280;69633;47.066;15.450;2023-04-28T01:10:15;97916.09;;;11.48;51.52
80321;BME280;69633;47.066;15.450;2023-04-28T01:12:40;97926.94;;;11.43;51.52
80321;BME280;69633;47.066;15.450;2023-04-28T01:15:06;97921.47;;;11.40;51.73
80321;BME280;69633;47.066;15.450;2023-04-28T01:17:36;97922.59;;;11.39;52.30
80321;BME280;69633;47.066;15.450;2023-04-28T01:20:01;97919.47;;;11.37;51.75
80321;BME280;69633;47.066;15.450;2023-04-28T01:22:28;97912.53;;;11.24;52.91
80321;BME280;69633;47.066;15.450;2023-04-28T01:24:54;97918.41;;;11.08;53.09
80321;BME280;69633;47.066;15.450;2023-04-28T01:27:19;97919.38;;;11.04;53.92
80321;BME280;69633;47.066;15.450;2023-04-28T01:29:45;97914.38;;;11.02;54.42
80321;BME280;69633;47.066;15.450;2023-04-28T01:32:10;97910.34;;;10.96;55.01
80321;BME280;69633;47.066;15.450;2023-04-28T01:34:36;97922.28;;;10.90;55.03
80321;BME280;69633;47.066;15.450;2023-04-28T01:37:01;97918.34;;;10.88;55.80
80321;BME280;69633;47.066;15.450;2023-04-28T01:39:26;97922.88;;;10.87;55.34
80321;BME280;69633;47.066;15.450;2023-04-28T01:41:52;97924.03;;;10.78;56.08
80321;BME280;69633;47.066;15.450;2023-04-28T01:44:17;97919.22;;;10.71;56.12
80321;BME280;69633;47.066;15.450;2023-04-28T01:46:43;97917.22;;;10.68;56.70
80321;BME280;69633;47.066;15.450;2023-04-28T01:49:08;97914.91;;;10.58;57.04
80321;BME280;69633;47.066;15.450;2023-04-28T01:51:34;97903.22;;;10.50;57.12
80321;BME280;69633;47.066;15.450;2023-04-28T01:53:59;97906.38;;;10.44;57.46
80321;BME280;69633;47.066;15.450;2023-04-28T01:56:25;97911.25;;;10.42;57.40
80321;BME280;69633;47.066;15.450;2023-04-28T01:58:50;97905.66;;;10.35;57.91
80321;BME280;69633;47.066;15.450;2023-04-28T02:01:16;97910.19;;;10.26;57.45
80321;BME280;69633;47.066;15.450;2023-04-28T02:03:41;97909.72;;;10.24;57.32
80321;BME280;69633;47.066;15.450;2023-04-28T02:06:07;97908.16;;;10.23;57.64
80321;BME280;69633;47.066;15.450;2023-04-28T02:08:32;97910.97;;;10.17;58.41
80321;BME280;69633;47.066;15.450;2023-04-28T02:10:57;97911.75;;;10.09;58.41
80321;BME280;69633;47.066;15.450;2023-04-28T02:13:23;97924.41;;;9.95;58.65
80321;BME280;69633;47.066;15.450;2023-04-28T02:15:48;97928.34;;;9.81;59.51
80321;BME280;69633;47.066;15.450;2023-04-28T02:18:14;97929.75;;;9.78;59.75
80321;BME280;69633;47.066;15.450;2023-04-28T02:20:39;97925.19;;;9.79;59.59
80321;BME280;69633;47.066;15.450;2023-04-28T02:23:05;97926.00;;;9.70;59.98
80321;BME280;69633;47.066;15.450;2023-04-28T02:25:30;97927.41;;;9.68;59.95
80321;BME280;69633;47.066;15.450;2023-04-28T02:27:56;97929.41;;;9.71;60.47
80321;BME280;69633;47.066;15.450;2023-04-28T02:30:21;97928.03;;;9.65;60.17
80321;BME280;69633;47.066;15.450;2023-04-28T02:32:47;97930.53;;;9.61;60.12
80321;BME280;69633;47.066;15.450;2023-04-28T02:35:13;97925.06;;;9.58;60.13
80321;BME280;69633;47.066;15.450;2023-04-28T02:37:38;97928.19;;;9.51;60.23
80321;BME280;69633;47.066;15.450;2023-04-28T02:40:04;97925.06;;;9.41;60.36
80321;BME280;69633;47.066;15.450;2023-04-28T02:42:30;97924.44;;;9.35;60.51
80321;BME280;69633;47.066;15.450;2023-04-28T02:44:55;97923.66;;;9.35;60.49
80321;BME280;69633;47.066;15.450;2023-04-28T02:47:21;97928.47;;;9.33;60.73
80321;BME280;69633;47.066;15.450;2023-04-28T02:49:46;97924.72;;;9.34;60.84
80321;BME280;69633;47.066;15.450;2023-04-28T02:52:12;97920.06;;;9.31;60.83
80321;BME280;69633;47.066;15.450;2023-04-28T02:54:37;97916.31;;;9.32;60.60
80321;BME280;69633;47.066;15.450;2023-04-28T02:57:03;97923.97;;;9.33;60.85
80321;BME280;69633;47.066;15.450;2023-04-28T02:59:31;97923.19;;;9.33;60.67
80321;BME280;69633;47.066;15.450;2023-04-28T03:01:57;97929.56;;;9.32;61.76
80321;BME280;69633;47.066;15.450;2023-04-28T03:04:22;97926.13;;;9.22;60.90
80321;BME280;69633;47.066;15.450;2023-04-28T03:06:48;97916.16;;;9.11;61.38
80321;BME280;69633;47.066;15.450;2023-04-28T03:09:14;97916.13;;;9.02;61.88
80321;BME280;69633;47.066;15.450;2023-04-28T03:11:40;97914.25;;;9.03;61.98
80321;BME280;69633;47.066;15.450;2023-04-28T03:14:06;97902.91;;;9.02;61.78
80321;BME280;69633;47.066;15.450;2023-04-28T03:16:32;97901.47;;;9.05;61.61
80321;BME280;69633;47.066;15.450;2023-04-28T03:18:57;97906.31;;;9.11;61.29
80321;BME280;69633;47.066;15.450;2023-04-28T03:21:23;97908.22;;;9.11;61.97
80321;BME280;69633;47.066;15.450;2023-04-28T03:23:50;97900.84;;;9.08;61.81
80321;BME280;69633;47.066;15.450;2023-04-28T03:26:16;97903.84;;;9.06;61.74
80321;BME280;69633;47.066;15.450;2023-04-28T03:28:41;97897.59;;;9.02;61.48
80321;BME280;69633;47.066;15.450;2023-04-28T03:31:07;97892.94;;;8.99;61.72
80321;BME280;69633;47.066;15.450;2023-04-28T03:33:32;97893.06;;;8.94;61.37
80321;BME280;69633;47.066;15.450;2023-04-28T03:35:57;97892.88;;;8.82;62.12
80321;BME280;69633;47.066;15.450;2023-04-28T03:38:23;97896.28;;;8.74;62.18
80321;BME280;69633;47.066;15.450;2023-04-28T03:40:48;97890.19;;;8.73;62.21
80321;BME280;69633;47.066;15.450;2023-04-28T03:43:14;97898.31;;;8.77;62.80
80321;BME280;69633;47.066;15.450;2023-04-28T03:45:39;97900.47;;;8.75;63.22
80321;BME280;69633;47.066;15.450;2023-04-28T03:48:06;97901.44;;;8.79;62.53
80321;BME280;69633;47.066;15.450;2023-04-28T03:50:31;97898.00;;;8.79;62.38
80321;BME280;69633;47.066;15.450;2023-04-28T03:52:57;97900.97;;;8.77;62.43
80321;BME280;69633;47.066;15.450;2023-04-28T03:55:22;97901.88;;;8.81;62.33
80321;BME280;69633;47.066;15.450;2023-04-28T03:57:48;97901.63;;;8.91;61.75
80321;BME280;69633;47.066;15.450;2023-04-28T04:00:13;97898.81;;;8.96;62.04
80321;BME280;69633;47.066;15.450;2023-04-28T04:02:39;97894.97;;;9.11;61.44
80321;BME280;69633;47.066;15.450;2023-04-28T04:05:05;97903.97;;;9.18;60.94
80321;BME280;69633;47.066;15.450;2023-04-28T04:07:30;97905.56;;;9.19;61.06
80321;BME280;69633;47.066;15.450;2023-04-28T04:09:56;97900.75;;;9.21;60.89
80321;BME280;69633;47.066;15.450;2023-04-28T04:12:21;97903.72;;;9.29;60.68
80321;BME280;69633;47.066;15.450;2023-04-28T04:14:46;97902.78;;;9.33;60.48
80321;BME280;69633;47.066;15.450;2023-04-28T04:17:12;97902.59;;;9.38;60.41
80321;BME280;69633;47.066;15.450;2023-04-28T04:19:37;97906.22;;;9.51;60.11
80321;BME280;69633;47.066;15.450;2023-04-28T04:22:03;97913.38;;;9.59;59.96
80321;BME280;69633;47.066;15.450;2023-04-28T04:24:28;97910.25;;;9.65;59.87
80321;BME280;69633;47.066;15.450;2023-04-28T04:26:53;97913.69;;;9.57;60.01
80321;BME280;69633;47.066;15.450;2023-04-28T04:29:19;97910.72;;;9.59;60.59
80321;BME280;69633;47.066;15.450;2023-04-28T04:31:44;97912.59;;;9.67;59.71
80321;BME280;69633;47.066;15.450;2023-04-28T04:34:10;97914.16;;;9.51;60.21
80321;BME280;69633;47.066;15.450;2023-04-28T04:36:36;97910.09;;;9.62;60.06
80321;BME280;69633;47.066;15.450;2023-04-28T04:39:01;97900.13;;;9.59;60.32
80321;BME280;69633;47.066;15.450;2023-04-28T04:41:27;97899.19;;;9.55;60.29
80321;BME280;69633;47.066;15.450;2023-04-28T04:43:52;97902.78;;;9.50;60.29
80321;BME280;69633;47.066;15.450;2023-04-28T04:46:18;97904.00;;;9.27;61.29
80321;BME280;69633;47.066;15.450;2023-04-28T04:48:43;97893.88;;;9.20;61.40
80321;BME280;69633;47.066;15.450;2023-04-28T04:51:09;97897.16;;;9.35;61.04
80321;BME280;69633;47.066;15.450;2023-04-28T04:53:35;97894.81;;;9.42;61.18
80321;BME280;69633;47.066;15.450;2023-04-28T04:56:01;97901.53;;;9.48;61.03
80321;BME280;69633;47.066;15.450;2023-04-28T04:58:26;97897.94;;;9.52;60.68
80321;BME280;69633;47.066;15.450;2023-04-28T05:00:52;97907.59;;;9.65;60.25
80321;BME280;69633;47.066;15.450;2023-04-28T05:03:17;97901.69;;;9.77;60.30
80321;BME280;69633;47.066;15.450;2023-04-28T05:05:43;97893.25;;;9.75;59.76
80321;BME280;69633;47.066;15.450;2023-04-28T05:08:12;97899.31;;;9.76;60.04
80321;BME280;69633;47.066;15.450;2023-04-28T05:10:39;97899.91;;;9.90;60.00
80321;BME280;69633;47.066;15.450;2023-04-28T05:13:04;97904.63;;;9.93;59.87
80321;BME280;69633;47.066;15.450;2023-04-28T05:15:31;97902.41;;;9.95;59.53
80321;BME280;69633;47.066;15.450;2023-04-28T05:17:57;97901.19;;;9.92;59.49
80321;BME280;69633;47.066;15.450;2023-04-28T05:20:23;97902.28;;;9.91;59.29
80321;BME280;69633;47.066;15.450;2023-04-28T05:22:48;97890.22;;;10.11;59.69
80321;BME280;69633;47.066;15.450;2023-04-28T05:25:14;97887.81;;;10.44;58.09
80321;BME280;69633;47.066;15.450;2023-04-28T05:27:40;97889.66;;;10.52;57.91
80321;BME280;69633;47.066;15.450;2023-04-28T05:30:09;97889.81;;;10.47;57.64
80321;BME280;69633;47.066;15.450;2023-04-28T05:32:36;97882.59;;;10.56;57.48
80321;BME280;69633;47.066;15.450;2023-04-28T05:35:03;97877.09;;;10.61;57.51
80321;BME280;69633;47.066;15.450;2023-04-28T05:37:28;97874.06;;;10.80;57.70
80321;BME280;69633;47.066;15.450;2023-04-28T05:39:54;97879.22;;;11.05;56.22
80321;BME280;69633;47.066;15.450;2023-04-28T05:42:20;97874.09;;;11.21;56.09
80321;BME280;69633;47.066;15.450;2023-04-28T05:44:45;97873.19;;;11.38;55.05
80321;BME280;69633;47.066;15.450;2023-04-28T05:47:11;97866.19;;;11.54;54.58
80321;BME280;69633;47.066;15.450;2023-04-28T05:49:36;97874.19;;;11.66;53.28
80321;BME280;69633;47.066;15.450;2023-04-28T05:52:02;97874.84;;;11.63;52.95
80321;BME280;69633;47.066;15.450;2023-04-28T05:54:28;97875.28;;;11.86;52.81
80321;BME280;69633;47.066;15.450;2023-04-28T05:56:53;97867.28;;;11.74;53.34
80321;BME280;69633;47.066;15.450;2023-04-28T05:59:19;97869.22;;;11.64;54.25
80321;BME280;69633;47.066;15.450;2023-04-28T06:01:44;97869.41;;;11.80;54.18
80321;BME280;69633;47.066;15.450;2023-04-28T06:04:10;97870.19;;;11.81;53.10
80321;BME280;69633;47.066;15.450;2023-04-28T06:06:36;97865.91;;;11.68;53.22
80321;BME280;69633;47.066;15.450;2023-04-28T06:09:01;97864.88;;;11.60;53.08
80321;BME280;69633;47.066;15.450;2023-04-28T06:11:27;97865.25;;;11.91;52.87
80321;BME280;69633;47.066;15.450;2023-04-28T06:13:53;97860.84;;;12.20;51.57
80321;BME280;69633;47.066;15.450;2023-04-28T06:16:18;97866.19;;;12.32;50.85
80321;BME280;69633;47.066;15.450;2023-04-28T06:18:43;97862.72;;;12.07;51.22
80321;BME280;69633;47.066;15.450;2023-04-28T06:21:09;97878.78;;;11.98;52.06
80321;BME280;69633;47.066;15.450;2023-04-28T06:23:34;97887.63;;;11.90;51.96
80321;BME280;69633;47.066;15.450;2023-04-28T06:26:00;97885.88;;;11.74;52.29
80321;BME280;69633;47.066;15.450;2023-04-28T06:28:25;97885.19;;;11.97;51.92
80321;BME280;69633;47.066;15.450;2023-04-28T06:30:51;97878.13;;;12.01;51.59
80321;BME280;69633;47.066;15.450;2023-04-28T06:33:16;97878.94;;;12.14;51.17
80321;BME280;69633;47.066;15.450;2023-04-28T06:35:42;97875.97;;;12.40;51.15
80321;BME280;69633;47.066;15.450;2023-04-28T06:38:07;97877.53;;;12.53;50.01
80321;BME280;69633;47.066;15.450;2023-04-28T06:40:33;97874.19;;;12.68;49.85
80321;BME280;69633;47.066;15.450;2023-04-28T06:42:58;97869.88;;;12.64;49.55
80321;BME280;69633;47.066;15.450;2023-04-28T06:45:24;97867.00;;;12.44;49.53
80321;BME280;69633;47.066;15.450;2023-04-28T06:47:49;97862.13;;;12.58;49.51
80321;BME280;69633;47.066;15.450;2023-04-28T06:50:15;97874.94;;;13.05;48.32
80321;BME280;69633;47.066;15.450;2023-04-28T06:52:40;97872.75;;;12.95;48.74
80321;BME280;69633;47.066;15.450;2023-04-28T06:55:07;97865.47;;;13.32;48.00
80321;BME280;69633;47.066;15.450;2023-04-28T06:57:34;97858.66;;;13.74;46.84
80321;BME280;69633;47.066;15.450;2023-04-28T06:59:59;97868.09;;;13.99;46.54
80321;BME280;69633;47.066;15.450;2023-04-28T07:02:25;97864.31;;;13.73;46.94
80321;BME280;69633;47.066;15.450;2023-04-28T07:04:51;97868.31;;;13.79;46.08
80321;BME280;69633;47.066;15.450;2023-04-28T07:07:16;97867.22;;;13.95;46.33
80321;BME280;69633;47.066;15.450;2023-04-28T07:09:42;97861.13;;;14.11;45.72
80321;BME280;69633;47.066;15.450;2023-04-28T07:12:07;97850.91;;;14.28;45.61
80321;BME280;69633;47.066;15.450;2023-04-28T07:14:33;97857.00;;;14.29;45.92
80321;BME280;69633;47.066;15.450;2023-04-28T07:16:58;97862.16;;;14.22;45.64
80321;BME280;69633;47.066;15.450;2023-04-28T07:19:24;97853.91;;;14.27;45.58
80321;BME280;69633;47.066;15.450;2023-04-28T07:21:49;97860.31;;;14.38;45.05
80321;BME280;69633;47.066;15.450;2023-04-28T07:24:15;97846.63;;;14.39;45.39
80321;BME280;69633;47.066;15.450;2023-04-28T07:26:40;97844.63;;;14.52;44.68
80321;BME280;69633;47.066;15.450;2023-04-28T07:29:06;97840.13;;;14.56;44.54
80321;BME280;69633;47.066;15.450;2023-04-28T07:31:33;97845.16;;;14.42;44.97
80321;BME280;69633;47.066;15.450;2023-04-28T07:33:59;97841.50;;;14.19;45.71
80321;BME280;69633;47.066;15.450;2023-04-28T07:36:24;97837.88;;;14.27;45.79
80321;BME280;69633;47.066;15.450;2023-04-28T07:38:51;97836.97;;;14.35;46.17
80321;BME280;69633;47.066;15.450;2023-04-28T07:41:16;97825.56;;;14.69;45.33
80321;BME280;69633;47.066;15.450;2023-04-28T07:43:43;97838.16;;;14.53;45.52
80321;BME280;69633;47.066;15.450;2023-04-28T07:46:08;97842.72;;;14.06;46.22
80321;BME280;69633;47.066;15.450;2023-04-28T07:48:34;97840.09;;;13.93;46.46
80321;BME280;69633;47.066;15.450;2023-04-28T07:51:00;97844.16;;;14.03;46.81
80321;BME280;69633;47.066;15.450;2023-04-28T07:53:25;97831.56;;;14.47;45.86
80321;BME280;69633;47.066;15.450;2023-04-28T07:55:51;97826.00;;;14.56;45.57
80321;BME280;69633;47.066;15.450;2023-04-28T07:58:16;97827.81;;;14.51;45.72
80321;BME280;69633;47.066;15.450;2023-04-28T08:00:42;97827.31;;;14.46;45.94
80321;BME280;69633;47.066;15.450;2023-04-28T08:03:07;97818.63;;;14.49;45.72
80321;BME280;69633;47.066;15.450;2023-04-28T08:05:33;97818.94;;;14.47;45.70
80321;BME280;69633;47.066;15.450;2023-04-28T08:07:59;97816.19;;;14.44;46.02
80321;BME280;69633;47.066;15.450;2023-04-28T08:10:24;97816.34;;;14.51;46.02
80321;BME280;69633;47.066;15.450;2023-04-28T08:12:51;97825.50;;;14.50;46.31
80321;BME280;69633;47.066;15.450;2023-04-28T08:15:17;97836.88;;;14.47;46.41
80321;BME280;69633;47.066;15.450;2023-04-28T08:17:42;97839.28;;;14.21;46.97
80321;BME280;69633;47.066;15.450;2023-04-28T08:20:08;97837.06;;;13.95;47.67
80321;BME280;69633;47.066;15.450;2023-04-28T08:22:34;97832.91;;;14.10;47.33
80321;BME280;69633;47.066;15.450;2023-04-28T08:24:59;97829.28;;;14.33;47.02
80321;BME280;69633;47.066;15.450;2023-04-28T08:27:25;97826.72;;;14.37;46.82
80321;BME280;69633;47.066;15.450;2023-04-28T08:29:50;97825.81;;;14.33;46.94
80321;BME280;69633;47.066;15.450;2023-04-28T08:32:16;97822.84;;;14.34;46.41
80321;BME280;69633;47.066;15.450;2023-04-28T08:34:42;97818.16;;;14.31;46.93
80321;BME280;69633;47.066;15.450;2023-04-28T08:37:07;97822.84;;;14.34;46.50
80321;BME280;69633;47.066;15.450;2023-04-28T08:39:32;97823.94;;;14.49;46.84
80321;BME280;69633;47.066;15.450;2023-04-28T08:42:02;97818.34;;;14.54;46.77
80321;BME280;69633;47.066;15.450;2023-04-28T08:44:36;97814.38;;;14.48;47.42
80321;BME280;69633;47.066;15.450;2023-04-28T08:47:08;97810.00;;;14.40;47.10
80321;BME280;69633;47.066;15.450;2023-04-28T08:49:34;97816.19;;;14.44;47.05
80321;BME280;69633;47.066;15.450;2023-04-28T08:52:01;97814.19;;;14.25;48.27
80321;BME280;69633;47.066;15.450;2023-04-28T08:54:32;97803.78;;;14.04;47.94
80321;BME280;69633;47.066;15.450;2023-04-28T08:57:00;97804.88;;;13.88;49.15
80321;BME280;69633;47.066;15.450;2023-04-28T08:59:26;97807.63;;;13.76;49.63
80321;BME280;69633;47.066;15.450;2023-04-28T09:01:52;97811.28;;;13.28;50.80
80321;BME280;69633;47.066;15.450;2023-04-28T09:04:18;97815.00;;;13.11;50.42
80321;BME280;69633;47.066;15.450;2023-04-28T09:06:43;97816.41;;;13.08;50.46
80321;BME280;69633;47.066;15.450;2023-04-28T09:09:24;97821.16;;;13.27;50.48
80321;BME280;69633;47.066;15.450;2023-04-28T09:12:00;97822.88;;;13.47;50.47
80321;BME280;69633;47.066;15.450;2023-04-28T09:14:31;97821.31;;;13.74;49.63
80321;BME280;69633;47.066;15.450;2023-04-28T09:16:57;97809.13;;;14.04;48.62
80321;BME280;69633;47.066;15.450;2023-04-28T09:19:23;97805.50;;;14.28;48.79
80321;BME280;69633;47.066;15.450;2023-04-28T09:21:54;97801.25;;;14.59;48.40
80321;BME280;69633;47.066;15.450;2023-04-28T09:24:27;97807.94;;;14.49;48.29
80321;BME280;69633;47.066;15.450;2023-04-28T09:26:52;97812.31;;;14.41;49.75
80321;BME280;69633;47.066;15.450;2023-04-28T09:29:17;97821.00;;;14.23;49.52
80321;BME280;69633;47.066;15.450;2023-04-28T09:31:43;97817.41;;;14.31;48.72
80321;BME280;69633;47.066;15.450;2023-04-28T09:34:08;97812.53;;;14.83;47.27
80321;BME280;69633;47.066;15.450;2023-04-28T09:36:36;97811.09;;;15.43;46.86
80321;BME280;69633;47.066;15.450;2023-04-28T09:39:02;97812.03;;;15.51;45.61
80321;BME280;69633;47.066;15.450;2023-04-28T09:41:43;97810.09;;;15.32;46.14
80321;BME280;69633;47.066;15.450;2023-04-28T09:44:17;97805.09;;;15.31;45.91
80321;BME280;69633;47.066;15.450;2023-04-28T09:46:44;97793.44;;;15.58;45.50
80321;BME280;69633;47.066;15.450;2023-04-28T09:49:10;97791.75;;;15.50;44.79
80321;BME280;69633;47.066;15.450;2023-04-28T09:51:36;97792.59;;;15.54;45.34
80321;BME280;69633;47.066;15.450;2023-04-28T09:54:02;97792.00;;;15.64;44.76
80321;BME280;69633;47.066;15.450;2023-04-28T09:56:29;97794.13;;;15.36;45.05
80321;BME280;69633;47.066;15.450;2023-04-28T09:58:59;97784.34;;;15.24;45.49
80321;BME280;69633;47.066;15.450;2023-04-28T10:01:27;97778.69;;;15.48;44.80
80321;BME280;69633;47.066;15.450;2023-04-28T10:03:53;97772.66;;;14.94;45.68
80321;BME280;69633;47.066;15.450;2023-04-28T10:06:21;97779.75;;;14.86;46.10
80321;BME280;69633;47.066;15.450;2023-04-28T10:08:47;97775.09;;;14.83;46.70
80321;BME280;69633;47.066;15.450;2023-04-28T10:11:15;97771.66;;;14.83;46.44
80321;BME280;69633;47.066;15.450;2023-04-28T10:13:42;97770.69;;;15.29;45.92
80321;BME280;69633;47.066;15.450;2023-04-28T10:16:09;97771.97;;;15.77;44.77
80321;BME280;69633;47.066;15.450;2023-04-28T10:18:35;97768.78;;;15.49;45.54
80321;BME280;69633;47.066;15.450;2023-04-28T10:21:02;97768.09;;;15.33;46.09
80321;BME280;69633;47.066;15.450;2023-04-28T10:26:14;97759.25;;;15.71;45.06
80321;BME280;69633;47.066;15.450;2023-04-28T10:28:48;97754.53;;;16.10;44.67
80321;BME280;69633;47.066;15.450;2023-04-28T10:31:16;97742.94;;;15.79;45.08
80321;BME280;69633;47.066;15.450;2023-04-28T10:33:42;97740.13;;;15.30;46.29
80321;BME280;69633;47.066;15.450;2023-04-28T10:36:09;97744.22;;;15.43;45.99
80321;BME280;69633;47.066;15.450;2023-04-28T10:38:35;97735.69;;;15.80;45.86
80321;BME280;69633;47.066;15.450;2023-04-28T10:41:02;97718.81;;;16.25;44.77
80321;BME280;69633;47.066;15.450;2023-04-28T10:48:19;97713.00;;;17.05;43.06
80321;BME280;69633;47.066;15.450;2023-04-28T10:56:22;97700.97;;;16.62;44.37
80321;BME280;69633;47.066;15.450;2023-04-28T10:58:58;97703.25;;;16.60;44.56
80321;BME280;69633;47.066;15.450;2023-04-28T11:01:31;97694.78;;;16.32;44.56
80321;BME280;69633;47.066;15.450;2023-04-28T11:04:07;97703.34;;;16.41;44.78
80321;BME280;69633;47.066;15.450;2023-04-28T11:06:38;97696.69;;;16.87;43.65
80321;BME280;69633;47.066;15.450;2023-04-28T11:14:33;97687.38;;;16.48;43.99
80321;BME280;69633;47.066;15.450;2023-04-28T11:19:38;97675.22;;;16.87;43.53
80321;BME280;69633;47.066;15.450;2023-04-28T11:22:12;97670.16;;;17.12;43.15
80321;BME280;69633;47.066;15.450;2023-04-28T11:24:38;97654.53;;;17.58;42.46
80321;BME280;69633;47.066;15.450;2023-04-28T11:27:04;97654.03;;;17.49;42.48
80321;BME280;69633;47.066;15.450;2023-04-28T11:29:35;97651.00;;;17.51;42.59
80321;BME280;69633;47.066;15.450;2023-04-28T11:32:09;97650.09;;;17.80;41.69
80321;BME280;69633;47.066;15.450;2023-04-28T11:34:36;97651.94;;;18.27;41.21
80321;BME280;69633;47.066;15.450;2023-04-28T11:37:02;97638.16;;;18.39;40.81
80321;BME280;69633;47.066;15.450;2023-04-28T11:39:34;97636.63;;;18.38;40.81
80321;BME280;69633;47.066;15.450;2023-04-28T11:42:01;97632.97;;;18.02;41.64
80321;BME280;69633;47.066;15.450;2023-04-28T11:44:29;97638.09;;;18.25;40.93
80321;BME280;69633;47.066;15.450;2023-04-28T11:46:59;97631.44;;;18.05;41.61
80321;BME280;69633;47.066;15.450;2023-04-28T11:49:26;97623.59;;;18.40;41.02
80321;BME280;69633;47.066;15.450;2023-04-28T11:51:54;97615.31;;;18.73;40.69
80321;BME280;69633;47.066;15.450;2023-04-28T11:54:24;97619.97;;;19.01;40.00
80321;BME280;69633;47.066;15.450;2023-04-28T11:56:51;97617.69;;;19.14;39.75
80321;BME280;69633;47.066;15.450;2023-04-28T11:59:18;97613.06;;;19.07;40.04
80321;BME280;69633;47.066;15.450;2023-04-28T12:01:53;97616.94;;;19.27;39.76
80321;BME280;69633;47.066;15.450;2023-04-28T12:04:33;97615.00;;;19.00;39.86
80321;BME280;69633;47.066;15.450;2023-04-28T12:07:07;97611.66;;;18.34;41.03
80321;BME280;69633;47.066;15.450;2023-04-28T12:09:36;97615.03;;;18.17;41.30
80321;BME280;69633;47.066;15.450;2023-04-28T12:12:06;97615.44;;;18.26;41.07
80321;BME280;69633;47.066;15.450;2023-04-28T12:15:00;97615.09;;;18.31;41.67
80321;BME280;69633;47.066;15.450;2023-04-28T12:19:54;97601.44;;;18.64;41.01
80321;BME280;69633;47.066;15.450;2023-04-28T12:22:20;97604.50;;;18.63;41.03
80321;BME280;69633;47.066;15.450;2023-04-28T12:24:45;97603.41;;;18.81;40.67
80321;BME280;69633;47.066;15.450;2023-04-28T12:27:19;97602.16;;;18.54;40.98
80321;BME280;69633;47.066;15.450;2023-04-28T12:29:49;97607.38;;;18.26;41.62
80321;BME280;69633;47.066;15.450;2023-04-28T12:32:16;97599.78;;;18.39;41.80
80321;BME280;69633;47.066;15.450;2023-04-28T12:34:45;97603.81;;;18.04;42.25
80321;BME280;69633;47.066;15.450;2023-04-28T12:37:11;97599.59;;;18.03;42.64
80321;BME280;69633;47.066;15.450;2023-04-28T12:39:39;97604.91;;;17.93;43.01
80321;BME280;69633;47.066;15.450;2023-04-28T12:42:05;97608.09;;;18.12;42.58
80321;BME280;69633;47.066;15.450;2023-04-28T12:44:32;97602.38;;;18.17;42.68
80321;BME280;69633;47.066;15.450;2023-04-28T12:47:07;97589.59;;;18.00;42.83
80321;BME280;69633;47.066;15.450;2023-04-28T12:49:36;97590.97;;;17.73;43.55
80321;BME280;69633;47.066;15.450;2023-04-28T12:52:03;97598.94;;;17.62;43.85
80321;BME280;69633;47.066;15.450;2023-04-28T12:54:29;97588.59;;;17.64;43.86
80321;BME280;69633;47.066;15.450;2023-04-28T12:56:54;97585.50;;;17.62;43.42
80321;BME280;69633;47.066;15.450;2023-04-28T12:59:20;97579.25;;;17.99;43.08
80321;BME280;69633;47.066;15.450;2023-04-28T13:01:47;97580.59;;;17.71;43.38
80321;BME280;69633;47.066;15.450;2023-04-28T13:04:12;97563.78;;;17.81;43.70
80321;BME280;69633;47.066;15.450;2023-04-28T13:06:38;97564.94;;;17.80;43.69
80321;BME280;69633;47.066;15.450;2023-04-28T13:09:09;97571.03;;;17.74;43.85
80321;BME280;69633;47.066;15.450;2023-04-28T13:11:35;97574.13;;;17.79;43.79
80321;BME280;69633;47.066;15.450;2023-04-28T13:14:00;97566.00;;;17.65;44.22